createdAt,value
2022-11-22T00:00:45.735Z,48.30
2022-11-22T00:03:12.741Z,45.05
2022-11-22T00:05:40.045Z,48.95
2022-11-22T00:08:07.787Z,47.25
2022-11-22T00:10:34.910Z,45.90
2022-11-22T00:13:03.271Z,47.55
2022-11-22T00:15:30.786Z,50.03
2022-11-22T00:17:58.064Z,47.38
2022-11-22T00:20:25.555Z,44.40
2022-11-22T00:22:53.116Z,53.65
2022-11-22T00:25:20.147Z,53.35
2022-11-22T00:27:47.281Z,47.10
2022-11-22T00:30:14.489Z,53.28
2022-11-22T00:32:41.467Z,46.78
2022-11-22T00:35:08.874Z,46.67
2022-11-22T00:37:35.816Z,47.72
2022-11-22T00:40:02.921Z,50.63
2022-11-22T00:42:29.974Z,47.88
2022-11-22T00:44:56.996Z,47.83
2022-11-22T00:47:24.111Z,44.38
2022-11-22T00:49:51.150Z,45.60
2022-11-22T00:52:18.005Z,41.13
2022-11-22T00:54:48.823Z,46.88
2022-11-22T00:57:20.130Z,45.83
2022-11-22T00:59:52.242Z,44.83
2022-11-22T01:02:19.173Z,78.63
2022-11-22T01:04:46.204Z,97.70
2022-11-22T01:07:16.143Z,64.15
2022-11-22T01:09:43.135Z,46.92
2022-11-22T01:12:10.111Z,44.22
2022-11-22T01:14:37.041Z,54.08
2022-11-22T01:17:04.376Z,50.30
2022-11-22T01:19:31.439Z,51.17
2022-11-22T01:21:59.145Z,48.08
2022-11-22T01:24:26.164Z,51.42
2022-11-22T01:26:53.482Z,49.40
2022-11-22T01:29:20.407Z,48.05
2022-11-22T01:31:47.436Z,47.63
2022-11-22T01:34:14.922Z,43.35
2022-11-22T01:36:41.967Z,45.42
2022-11-22T01:39:08.993Z,43.70
2022-11-22T01:41:36.293Z,43.97
2022-11-22T01:44:32.717Z,45.95
2022-11-22T01:47:13.969Z,44.45
2022-11-22T01:49:43.735Z,44.95
2022-11-22T01:52:18.942Z,45.53
2022-11-22T01:55:07.945Z,43.30
2022-11-22T01:57:39.085Z,43.22
2022-11-22T02:00:10.278Z,41.70
2022-11-22T02:02:38.076Z,43.80
2022-11-22T02:05:10.273Z,42.45
2022-11-22T02:07:45.688Z,41.97
2022-11-22T02:10:13.673Z,42.65
2022-11-22T02:12:41.351Z,42.85
2022-11-22T02:15:08.980Z,42.78
2022-11-22T02:17:35.895Z,43.03
2022-11-22T02:20:04.628Z,40.58
2022-11-22T02:22:50.020Z,42.08
2022-11-22T02:25:28.133Z,38.95
2022-11-22T02:27:55.449Z,40.47
2022-11-22T02:30:22.858Z,40.78
2022-11-22T02:32:49.988Z,43.22
2022-11-22T02:35:24.104Z,43.10
2022-11-22T02:37:56.977Z,41.08
2022-11-22T02:40:25.738Z,43.55
2022-11-22T02:43:17.556Z,42.42
2022-11-22T02:45:44.557Z,41.85
2022-11-22T02:48:17.403Z,40.53
2022-11-22T02:50:45.284Z,42.58
2022-11-22T02:53:13.477Z,37.75
2022-11-22T02:55:40.991Z,45.22
2022-11-22T02:58:08.461Z,38.92
2022-11-22T03:00:37.489Z,45.20
2022-11-22T03:03:04.650Z,44.45
2022-11-22T03:05:31.786Z,39.95
2022-11-22T03:08:01.939Z,42.83
2022-11-22T03:10:28.887Z,38.40
2022-11-22T03:12:58.018Z,42.90
2022-11-22T03:15:24.931Z,43.78
2022-11-22T03:17:58.321Z,42.53
2022-11-22T03:20:25.700Z,43.03
2022-11-22T03:22:52.874Z,43.53
2022-11-22T03:25:20.001Z,46.15
2022-11-22T03:27:49.598Z,41.30
2022-11-22T03:30:16.749Z,40.08
2022-11-22T03:32:43.878Z,46.38
2022-11-22T03:35:11.243Z,45.95
2022-11-22T03:37:38.469Z,41.60
2022-11-22T03:40:06.146Z,43.63
2022-11-22T03:42:33.123Z,41.58
2022-11-22T03:45:00.067Z,42.58
2022-11-22T03:47:26.962Z,41.97
2022-11-22T03:49:54.281Z,44.00
2022-11-22T03:52:21.241Z,41.72
2022-11-22T03:54:48.214Z,42.65
2022-11-22T03:57:17.323Z,43.10
2022-11-22T03:59:44.424Z,45.50
2022-11-22T04:02:11.433Z,40.55
2022-11-22T04:04:38.441Z,44.45
2022-11-22T04:07:07.430Z,39.40
2022-11-22T04:09:34.620Z,42.92
2022-11-22T04:12:01.891Z,41.50
2022-11-22T04:14:47.369Z,40.55
2022-11-22T04:17:14.882Z,38.15
2022-11-22T04:20:01.930Z,41.75
2022-11-22T04:22:28.874Z,43.10
2022-11-22T04:25:14.408Z,44.60
2022-11-22T04:27:41.755Z,41.92
2022-11-22T04:30:08.958Z,41.17
2022-11-22T04:32:48.058Z,46.15
2022-11-22T04:35:16.809Z,46.63
2022-11-22T04:37:43.905Z,42.65
2022-11-22T04:40:11.128Z,45.95
2022-11-22T04:42:56.493Z,45.67
2022-11-22T04:45:23.591Z,44.00
2022-11-22T04:47:59.358Z,43.13
2022-11-22T04:50:48.441Z,42.28
2022-11-22T04:53:17.321Z,43.00
2022-11-22T04:55:47.042Z,44.22
2022-11-22T04:58:14.835Z,46.90
2022-11-22T05:00:41.935Z,50.20
2022-11-22T05:03:09.066Z,49.00
2022-11-22T05:05:41.497Z,48.08
2022-11-22T05:08:09.925Z,48.67
2022-11-22T05:10:56.495Z,44.47
2022-11-22T05:13:32.761Z,45.92
2022-11-22T05:16:01.013Z,45.83
2022-11-22T05:18:28.887Z,49.05
2022-11-22T05:20:56.340Z,46.75
2022-11-22T05:23:42.836Z,48.03
2022-11-22T05:26:11.036Z,49.25
2022-11-22T05:28:39.556Z,48.50
2022-11-22T05:31:18.420Z,48.17
2022-11-22T05:33:46.754Z,50.22
2022-11-22T05:36:13.804Z,47.53
2022-11-22T05:38:42.325Z,49.22
2022-11-22T05:41:11.609Z,49.00
2022-11-22T05:43:39.265Z,48.47
2022-11-22T05:46:14.598Z,48.58
2022-11-22T05:48:45.933Z,50.58
2022-11-22T05:51:17.332Z,49.25
2022-11-22T05:53:45.267Z,55.15
2022-11-22T05:56:15.315Z,51.13
2022-11-22T05:58:42.814Z,49.17
2022-11-22T06:01:16.383Z,52.80
2022-11-22T06:03:44.159Z,47.97
2022-11-22T06:06:11.769Z,51.05
2022-11-22T06:08:47.060Z,52.22
2022-11-22T06:11:25.895Z,53.25
2022-11-22T06:13:55.806Z,53.30
2022-11-22T06:16:23.288Z,48.20
2022-11-22T06:18:50.776Z,51.65
2022-11-22T06:21:20.813Z,53.38
2022-11-22T06:23:47.766Z,53.05
2022-11-22T06:26:17.971Z,53.75
2022-11-22T06:28:46.312Z,83.20
2022-11-22T06:31:14.295Z,66.15
2022-11-22T06:33:42.317Z,64.50
2022-11-22T06:36:14.907Z,64.30
2022-11-22T06:38:43.229Z,57.15
2022-11-22T06:41:15.940Z,54.67
2022-11-22T06:43:48.783Z,52.53
2022-11-22T06:46:22.478Z,55.38
2022-11-22T06:48:50.245Z,57.92
2022-11-22T06:51:20.447Z,52.55
2022-11-22T06:53:49.340Z,64.35
2022-11-22T06:56:21.093Z,54.75
2022-11-22T06:58:49.834Z,55.85
2022-11-22T07:01:19.664Z,56.20
2022-11-22T07:03:47.886Z,67.10
2022-11-22T07:06:17.302Z,58.70
2022-11-22T07:08:45.201Z,59.20
2022-11-22T07:11:20.641Z,64.35
2022-11-22T07:13:49.167Z,68.53
2022-11-22T07:16:19.830Z,83.93
2022-11-22T07:18:48.202Z,60.35
2022-11-22T07:21:23.283Z,143.25
2022-11-22T07:23:52.812Z,65.50
2022-11-22T07:26:21.567Z,65.13
2022-11-22T07:28:49.316Z,60.50
2022-11-22T07:31:17.618Z,57.00
2022-11-22T07:33:45.126Z,56.33
2022-11-22T07:36:13.172Z,57.83
2022-11-22T07:38:40.272Z,55.70
2022-11-22T07:41:08.668Z,65.72
2022-11-22T07:43:35.890Z,72.63
2022-11-22T07:46:06.213Z,63.08
2022-11-22T07:48:33.701Z,73.20
2022-11-22T07:51:05.980Z,80.50
2022-11-22T07:53:33.700Z,72.90
2022-11-22T07:56:05.183Z,64.50
2022-11-22T07:58:33.283Z,69.28
2022-11-22T08:01:11.738Z,68.28
2022-11-22T08:03:39.518Z,75.28
2022-11-22T08:06:08.719Z,69.50
2022-11-22T08:08:36.561Z,79.65
2022-11-22T08:11:04.576Z,64.20
2022-11-22T08:13:32.642Z,65.03
2022-11-22T08:16:06.306Z,64.35
2022-11-22T08:18:35.578Z,62.65
2022-11-22T08:21:12.475Z,56.00
2022-11-22T08:23:40.493Z,58.75
2022-11-22T08:26:09.704Z,59.00
2022-11-22T08:28:36.869Z,60.03
2022-11-22T08:31:07.570Z,67.38
2022-11-22T08:36:01.669Z,64.07
2022-11-22T08:38:28.921Z,67.45
2022-11-22T08:40:56.229Z,69.32
2022-11-22T08:43:23.237Z,73.28
2022-11-22T08:45:54.586Z,66.07
2022-11-22T08:48:22.750Z,66.32
2022-11-22T08:50:51.524Z,66.88
2022-11-22T08:53:18.699Z,66.38
2022-11-22T08:55:46.270Z,76.88
2022-11-22T08:58:13.407Z,65.72
2022-11-22T09:00:40.427Z,66.43
2022-11-22T09:03:07.559Z,66.95
2022-11-22T09:05:34.660Z,62.50
2022-11-22T09:10:48.912Z,71.10
2022-11-22T09:13:15.982Z,75.65
2022-11-22T09:15:43.269Z,69.88
2022-11-22T09:18:10.163Z,68.45
2022-11-22T09:20:37.150Z,96.88
2022-11-22T09:23:04.844Z,62.53
2022-11-22T09:25:31.929Z,62.55
2022-11-22T09:28:04.698Z,70.70
2022-11-22T09:30:31.861Z,90.28
2022-11-22T09:32:59.045Z,62.90
2022-11-22T09:35:26.574Z,59.03
2022-11-22T09:37:53.522Z,59.25
2022-11-22T09:40:20.558Z,57.63
2022-11-22T09:43:02.801Z,51.72
2022-11-22T09:45:33.661Z,51.65
2022-11-22T09:48:11.635Z,54.75
2022-11-22T09:51:02.942Z,56.72
2022-11-22T09:53:45.486Z,56.13
2022-11-22T09:56:14.057Z,54.33
2022-11-22T09:58:56.252Z,52.97
2022-11-22T10:01:32.315Z,54.00
2022-11-22T10:04:20.675Z,57.08
2022-11-22T10:06:54.016Z,51.50
2022-11-22T10:09:28.873Z,53.40
2022-11-22T10:12:03.027Z,55.28
2022-11-22T10:14:35.597Z,50.72
2022-11-22T10:17:08.285Z,54.30
2022-11-22T10:19:59.481Z,54.92
2022-11-22T10:22:29.912Z,62.28
2022-11-22T10:24:59.830Z,54.20
2022-11-22T10:27:32.809Z,64.27
2022-11-22T10:30:12.399Z,52.00
2022-11-22T10:33:01.116Z,50.00
2022-11-22T10:36:09.553Z,51.28
2022-11-22T10:38:53.060Z,46.63
2022-11-22T10:41:52.224Z,48.55
2022-11-22T10:44:31.034Z,51.08
2022-11-22T10:47:07.093Z,47.90
2022-11-22T10:49:55.133Z,51.05
2022-11-22T10:52:44.855Z,48.20
2022-11-22T10:55:40.245Z,57.75
2022-11-22T10:58:34.844Z,55.28
2022-11-22T11:01:16.695Z,56.75
2022-11-22T11:03:45.056Z,67.18
2022-11-22T11:06:43.569Z,64.57
2022-11-22T11:10:09.103Z,57.35
2022-11-22T11:12:10.994Z,52.67
2022-11-22T11:14:41.295Z,47.33
2022-11-22T11:17:08.351Z,46.90
2022-11-22T11:19:39.666Z,45.53
2022-11-22T11:22:09.684Z,51.53
2022-11-22T11:24:39.330Z,40.50
2022-11-22T11:27:07.366Z,41.85
2022-11-22T11:29:38.683Z,44.08
2022-11-22T11:32:11.800Z,93.18
2022-11-22T11:34:41.694Z,44.78
2022-11-22T11:37:24.195Z,41.43
2022-11-22T11:39:51.197Z,44.67
2022-11-22T11:42:44.533Z,43.30
2022-11-22T11:45:29.740Z,41.05
2022-11-22T11:47:56.835Z,39.40
2022-11-22T11:50:25.980Z,58.00
2022-11-22T11:53:16.453Z,41.22
2022-11-22T11:55:43.390Z,35.50
2022-11-22T11:58:22.147Z,34.42
2022-11-22T12:00:49.224Z,33.53
2022-11-22T12:03:17.954Z,35.10
2022-11-22T12:05:45.065Z,31.63
2022-11-22T12:08:32.928Z,35.63
2022-11-22T12:11:09.692Z,35.80
2022-11-22T12:14:19.694Z,42.20
2022-11-22T12:16:48.794Z,36.22
2022-11-22T12:19:39.906Z,32.13
2022-11-22T12:22:48.083Z,33.05
2022-11-22T12:25:34.004Z,35.22
2022-11-22T12:28:17.492Z,34.95
2022-11-22T12:30:46.150Z,31.77
2022-11-22T12:33:20.152Z,53.40
2022-11-22T12:35:48.913Z,37.55
2022-11-22T12:38:22.134Z,39.47
2022-11-22T12:40:52.261Z,40.40
2022-11-22T12:43:26.228Z,40.00
2022-11-22T12:45:55.914Z,42.80
2022-11-22T12:48:51.426Z,42.08
2022-11-22T12:51:18.735Z,40.65
2022-11-22T12:53:46.232Z,41.75
2022-11-22T12:56:33.889Z,41.15
2022-11-22T12:59:22.328Z,44.28
2022-11-22T13:01:55.062Z,43.63
2022-11-22T13:04:42.617Z,48.75
2022-11-22T13:07:18.210Z,43.30
2022-11-22T13:09:50.351Z,49.85
2022-11-22T13:12:23.651Z,56.55
2022-11-22T13:14:55.673Z,46.35
2022-11-22T13:17:24.415Z,42.08
2022-11-22T13:20:05.361Z,47.17
2022-11-22T13:25:32.383Z,50.38
2022-11-22T13:28:02.237Z,48.28
2022-11-22T13:30:30.929Z,48.27
2022-11-22T13:32:59.816Z,48.65
2022-11-22T13:35:32.855Z,48.13
2022-11-22T13:38:06.094Z,43.75
2022-11-22T13:40:35.418Z,50.38
2022-11-22T13:43:21.182Z,45.05
2022-11-22T13:45:58.732Z,45.58
2022-11-22T13:48:40.881Z,57.25
2022-11-22T13:51:09.792Z,44.60
2022-11-22T13:53:47.262Z,75.38
2022-11-22T13:56:17.152Z,61.28
2022-11-22T13:58:52.571Z,100.53
2022-11-22T14:01:34.914Z,166.88
2022-11-22T14:04:17.141Z,66.07
2022-11-22T14:06:54.153Z,116.50
2022-11-22T14:09:34.847Z,61.92
2022-11-22T14:12:10.971Z,78.82
2022-11-22T14:14:50.407Z,54.00
2022-11-22T14:17:51.488Z,50.45
2022-11-22T14:20:56.131Z,42.63
2022-11-22T14:23:41.482Z,45.83
2022-11-22T14:26:21.043Z,45.75
2022-11-22T14:29:20.219Z,46.08
2022-11-22T14:32:04.991Z,54.50
2022-11-22T14:34:32.432Z,53.38
2022-11-22T14:37:15.472Z,46.30
2022-11-22T14:39:45.187Z,52.40
2022-11-22T14:42:38.544Z,44.28
2022-11-22T14:45:11.633Z,68.60
2022-11-22T14:48:00.621Z,42.05
2022-11-22T14:50:33.795Z,33.08
2022-11-22T14:53:39.829Z,33.22
2022-11-22T14:56:23.489Z,36.70
2022-11-22T14:59:17.494Z,44.83
2022-11-22T15:02:06.579Z,46.45
2022-11-22T15:09:13.689Z,39.70
2022-11-22T15:09:21.752Z,41.28
2022-11-22T15:10:44.944Z,42.33
2022-11-22T15:13:50.932Z,53.55
2022-11-22T15:59:47.154Z,43.45
2022-11-22T16:02:30.515Z,39.50
2022-11-22T16:06:08.698Z,46.03
2022-11-22T16:07:52.742Z,45.88
2022-11-22T16:10:23.146Z,41.33
2022-11-22T16:12:50.893Z,49.05
2022-11-22T16:15:38.924Z,44.78
2022-11-22T16:18:27.509Z,49.67
2022-11-22T16:21:07.612Z,50.47
2022-11-22T16:23:35.732Z,61.25
2022-11-22T16:26:25.502Z,65.90
2022-11-22T16:28:54.222Z,71.68
2022-11-22T16:31:31.883Z,63.33
2022-11-22T16:33:59.251Z,57.80
2022-11-22T16:36:29.833Z,72.65
2022-11-22T16:38:56.847Z,57.40
2022-11-22T16:41:23.776Z,80.90
2022-11-22T16:43:54.361Z,79.53
2022-11-22T16:46:21.331Z,61.35
2022-11-22T16:48:48.688Z,63.92
2022-11-22T16:51:24.348Z,44.10
2022-11-22T16:53:53.638Z,40.35
2022-11-22T16:56:22.776Z,39.30
2022-11-22T16:58:50.617Z,37.53
2022-11-22T17:01:20.630Z,40.30
2022-11-22T17:03:49.193Z,41.45
2022-11-22T17:06:18.968Z,39.47
2022-11-22T17:08:51.316Z,41.08
2022-11-22T17:11:20.513Z,39.33
2022-11-22T17:13:47.498Z,39.05
2022-11-22T17:16:14.982Z,42.17
2022-11-22T17:18:41.936Z,38.70
2022-11-22T17:21:32.993Z,39.97
2022-11-22T17:24:06.938Z,42.45
2022-11-22T17:26:35.027Z,51.05
2022-11-22T17:29:02.134Z,60.15
2022-11-22T17:31:29.256Z,58.67
2022-11-22T17:33:58.266Z,52.25
2022-11-22T17:36:30.484Z,49.10
2022-11-22T17:38:58.650Z,52.65
2022-11-22T17:41:26.560Z,51.65
2022-11-22T17:43:53.935Z,55.90
2022-11-22T17:46:21.072Z,56.22
2022-11-22T17:48:59.924Z,46.50
2022-11-22T17:51:30.924Z,43.72
2022-11-22T17:54:01.348Z,53.58
2022-11-22T17:56:30.169Z,55.33
2022-11-22T17:58:57.172Z,67.85
2022-11-22T18:01:24.251Z,50.75
2022-11-22T18:03:51.681Z,55.75
2022-11-22T18:06:21.763Z,63.28
2022-11-22T18:08:48.937Z,73.45
2022-11-22T18:11:16.905Z,52.40
2022-11-22T18:13:44.340Z,58.50
2022-11-22T18:16:14.436Z,49.38
2022-11-22T18:18:56.710Z,47.50
2022-11-22T18:21:25.004Z,50.10
2022-11-22T18:23:52.068Z,54.90
2022-11-22T18:31:53.987Z,73.43
2022-11-22T18:34:22.731Z,69.53
2022-11-22T18:36:55.397Z,57.05
2022-11-22T18:39:24.213Z,51.40
2022-11-22T18:41:51.200Z,51.65
2022-11-22T18:44:18.349Z,58.75
2022-11-22T18:46:45.337Z,59.50
2022-11-22T18:49:12.176Z,63.20
2022-11-22T18:51:39.133Z,57.00
2022-11-22T18:54:06.258Z,52.63
2022-11-22T18:56:38.149Z,54.42
2022-11-22T18:59:06.567Z,49.38
2022-11-22T19:01:34.912Z,63.35
2022-11-22T19:04:03.340Z,49.60
2022-11-22T19:06:30.864Z,54.78
2022-11-22T19:08:58.188Z,63.35
2022-11-22T19:11:25.957Z,48.65
2022-11-22T19:13:53.305Z,50.17
2022-11-22T19:16:22.340Z,47.80
2022-11-22T19:18:50.171Z,49.80
2022-11-22T19:21:19.536Z,51.95
2022-11-22T19:23:47.286Z,55.83
2022-11-22T19:26:16.600Z,51.17
2022-11-22T19:28:43.629Z,50.90
2022-11-22T19:31:16.084Z,55.72
2022-11-22T19:33:43.050Z,54.30
2022-11-22T19:36:18.563Z,46.58
2022-11-22T19:38:46.278Z,48.33
2022-11-22T19:41:18.919Z,49.88
2022-11-22T19:43:46.898Z,47.67
2022-11-22T19:46:14.317Z,48.28
2022-11-22T19:48:47.293Z,45.90
2022-11-22T19:51:15.942Z,45.33
2022-11-22T19:53:43.032Z,44.28
2022-11-22T19:56:16.911Z,46.78
2022-11-22T19:58:45.105Z,49.05
2022-11-22T20:01:14.600Z,43.47
2022-11-22T20:03:42.862Z,45.33
2022-11-22T20:06:12.254Z,45.28
2022-11-22T20:08:39.615Z,47.83
2022-11-22T20:11:11.495Z,45.65
2022-11-22T20:13:41.687Z,48.15
2022-11-22T20:16:17.709Z,47.70
2022-11-22T20:18:44.760Z,49.97
2022-11-22T20:21:12.148Z,51.13
2022-11-22T20:23:39.496Z,80.85
2022-11-22T20:26:12.532Z,56.70
2022-11-22T20:28:40.811Z,66.75
2022-11-22T20:31:09.411Z,71.28
2022-11-22T20:33:38.127Z,58.70
2022-11-22T20:36:07.138Z,52.58
2022-11-22T20:38:35.698Z,49.47
2022-11-22T20:41:02.968Z,62.92
2022-11-22T20:43:34.212Z,49.30
2022-11-22T20:46:15.342Z,78.00
2022-11-22T20:48:44.593Z,86.93
2022-11-22T20:51:14.329Z,82.57
2022-11-22T20:53:42.407Z,54.28
2022-11-22T20:56:10.096Z,48.38
2022-11-22T20:58:37.177Z,66.18
2022-11-22T21:01:19.873Z,55.13
2022-11-22T21:03:47.254Z,53.75
2022-11-22T21:06:15.136Z,51.72
2022-11-22T21:08:42.131Z,52.10
2022-11-22T21:11:26.206Z,52.55
2022-11-22T21:13:53.444Z,58.13
2022-11-22T21:16:26.813Z,65.53
2022-11-22T21:18:55.832Z,65.88
2022-11-22T21:21:24.204Z,91.88
2022-11-22T21:23:59.780Z,97.43
2022-11-22T21:26:27.066Z,63.63
2022-11-22T21:28:54.063Z,57.58
2022-11-22T21:31:22.464Z,54.40
2022-11-22T21:33:49.717Z,67.30
2022-11-22T21:36:16.727Z,57.97
2022-11-22T21:38:44.494Z,58.55
2022-11-22T21:44:07.424Z,53.80
2022-11-22T21:46:34.549Z,56.38
2022-11-22T21:49:01.869Z,58.78
2022-11-22T21:51:28.866Z,60.28
2022-11-22T21:53:59.690Z,56.55
2022-11-22T21:58:53.844Z,53.00
2022-11-22T22:01:20.986Z,55.42
2022-11-22T22:03:48.073Z,57.78
2022-11-22T22:06:15.088Z,57.10
2022-11-22T22:08:42.053Z,58.25
2022-11-22T22:11:09.025Z,56.22
2022-11-22T22:13:36.288Z,55.47
2022-11-22T22:16:06.992Z,53.70
2022-11-22T22:21:06.800Z,55.33
2022-11-22T22:23:34.486Z,57.42
2022-11-22T22:26:03.187Z,55.28
2022-11-22T22:28:31.257Z,56.03
2022-11-22T22:31:06.797Z,53.50
2022-11-22T22:33:34.496Z,62.15
2022-11-22T22:36:01.500Z,58.45
2022-11-22T22:38:30.679Z,54.80
2022-11-22T22:41:02.729Z,59.25
2022-11-22T22:43:32.093Z,60.45
2022-11-22T22:46:26.884Z,57.50
2022-11-22T22:48:55.375Z,57.08
2022-11-22T22:51:32.430Z,56.83
2022-11-22T22:54:01.076Z,58.42
2022-11-22T22:56:29.956Z,59.17
2022-11-22T22:58:57.756Z,56.20
2022-11-22T23:01:26.662Z,54.92
2022-11-22T23:03:57.597Z,54.90
2022-11-22T23:06:26.669Z,53.17
2022-11-22T23:08:54.660Z,54.45
2022-11-22T23:11:43.653Z,53.50
2022-11-22T23:14:12.363Z,50.03
2022-11-22T23:16:39.957Z,54.38
2022-11-22T23:19:07.326Z,51.10
2022-11-22T23:21:34.930Z,50.22
2022-11-22T23:24:02.087Z,50.35
2022-11-22T23:26:29.181Z,52.10
2022-11-22T23:28:56.264Z,51.63
2022-11-22T23:31:23.230Z,52.00
2022-11-22T23:33:50.173Z,51.53
2022-11-22T23:36:19.469Z,49.78
2022-11-22T23:38:46.931Z,49.38
2022-11-22T23:41:15.971Z,53.00
2022-11-22T23:43:43.865Z,58.15
2022-11-22T23:46:17.996Z,51.65
2022-11-22T23:48:46.215Z,58.90
2022-11-22T23:51:13.865Z,52.90
2022-11-22T23:53:40.951Z,49.13
2022-11-22T23:56:12.312Z,49.50
2022-11-22T23:58:39.504Z,48.13
